sensor_id;sensor_type;location;lat;lon;timestamp;pressure;altitude;pressure_sealevel;temperature;humidity
40089;BME280;25793;55.706;13.186;2022-11-23T00:01:29;99770.66;;;4.40;79.70
40089;BME280;25793;55.706;13.186;2022-11-23T00:04:00;99770.66;;;4.40;79.33
40089;BME280;25793;55.706;13.186;2022-11-23T00:06:27;99773.88;;;4.45;79.54
40089;BME280;25793;55.706;13.186;2022-11-23T00:08:54;99776.59;;;4.42;79.37
40089;BME280;25793;55.706;13.186;2022-11-23T00:11:22;99781.53;;;4.47;79.32
40089;BME280;25793;55.706;13.186;2022-11-23T00:13:49;99784.13;;;4.47;79.10
40089;BME280;25793;55.706;13.186;2022-11-23T00:16:27;99785.97;;;4.43;79.06
40089;BME280;25793;55.706;13.186;2022-11-23T00:18:57;99780.81;;;4.43;78.87
40089;BME280;25793;55.706;13.186;2022-11-23T00:21:27;99794.06;;;4.36;79.15
40089;BME280;25793;55.706;13.186;2022-11-23T00:23:54;99790.16;;;4.46;78.97
40089;BME280;25793;55.706;13.186;2022-11-23T00:26:21;99785.78;;;4.48;78.70
40089;BME280;25793;55.706;13.186;2022-11-23T00:28:48;99793.50;;;4.48;78.78
40089;BME280;25793;55.706;13.186;2022-11-23T00:31:16;99796.00;;;4.50;79.02
40089;BME280;25793;55.706;13.186;2022-11-23T00:33:54;99803.81;;;4.48;78.48
40089;BME280;25793;55.706;13.186;2022-11-23T00:36:22;99806.03;;;4.37;78.79
40089;BME280;25793;55.706;13.186;2022-11-23T00:38:50;99792.47;;;4.33;79.00
40089;BME280;25793;55.706;13.186;2022-11-23T00:41:20;99796.16;;;4.27;79.23
40089;BME280;25793;55.706;13.186;2022-11-23T00:43:47;99792.69;;;4.28;79.46
40089;BME280;25793;55.706;13.186;2022-11-23T00:46:18;99763.47;;;4.29;79.33
40089;BME280;25793;55.706;13.186;2022-11-23T00:48:47;99741.41;;;4.24;79.44
40089;BME280;25793;55.706;13.186;2022-11-23T00:51:20;99762.16;;;4.21;79.73
40089;BME280;25793;55.706;13.186;2022-11-23T00:53:49;99769.13;;;4.18;80.06
40089;BME280;25793;55.706;13.186;2022-11-23T00:56:17;99765.00;;;4.14;80.00
40089;BME280;25793;55.706;13.186;2022-11-23T00:58:48;99781.13;;;4.18;80.27
40089;BME280;25793;55.706;13.186;2022-11-23T01:01:18;99767.97;;;4.24;80.00
40089;BME280;25793;55.706;13.186;2022-11-23T01:03:47;99775.50;;;4.29;80.07
40089;BME280;25793;55.706;13.186;2022-11-23T01:06:17;99791.59;;;4.34;80.18
40089;BME280;25793;55.706;13.186;2022-11-23T01:08:51;99784.31;;;4.42;79.61
40089;BME280;25793;55.706;13.186;2022-11-23T01:11:18;99794.31;;;4.48;79.43
40089;BME280;25793;55.706;13.186;2022-11-23T01:13:48;99802.69;;;4.54;79.11
40089;BME280;25793;55.706;13.186;2022-11-23T01:16:20;99808.50;;;4.57;78.80
40089;BME280;25793;55.706;13.186;2022-11-23T01:19:00;99805.38;;;4.51;79.01
40089;BME280;25793;55.706;13.186;2022-11-23T01:21:28;99814.66;;;4.55;78.99
40089;BME280;25793;55.706;13.186;2022-11-23T01:23:56;99813.13;;;4.51;78.69
40089;BME280;25793;55.706;13.186;2022-11-23T01:26:23;99815.69;;;4.51;78.88
40089;BME280;25793;55.706;13.186;2022-11-23T01:28:50;99804.34;;;4.55;78.86
40089;BME280;25793;55.706;13.186;2022-11-23T01:31:22;99807.97;;;4.51;78.73
40089;BME280;25793;55.706;13.186;2022-11-23T01:33:54;99806.56;;;4.43;78.67
40089;BME280;25793;55.706;13.186;2022-11-23T01:36:23;99797.91;;;4.46;79.04
40089;BME280;25793;55.706;13.186;2022-11-23T01:38:50;99794.97;;;4.35;79.00
40089;BME280;25793;55.706;13.186;2022-11-23T01:41:24;99793.16;;;4.37;79.17
40089;BME280;25793;55.706;13.186;2022-11-23T01:43:51;99792.13;;;4.41;79.19
40089;BME280;25793;55.706;13.186;2022-11-23T01:46:19;99776.72;;;4.39;79.19
40089;BME280;25793;55.706;13.186;2022-11-23T01:48:55;99777.19;;;4.30;79.40
40089;BME280;25793;55.706;13.186;2022-11-23T01:51:27;99765.22;;;4.29;79.17
40089;BME280;25793;55.706;13.186;2022-11-23T01:54:01;99767.56;;;4.33;79.58
40089;BME280;25793;55.706;13.186;2022-11-23T01:56:45;99774.28;;;4.36;79.26
40089;BME280;25793;55.706;13.186;2022-11-23T01:59:15;99783.63;;;4.39;79.43
40089;BME280;25793;55.706;13.186;2022-11-23T02:01:43;99780.50;;;4.32;79.69
40089;BME280;25793;55.706;13.186;2022-11-23T02:04:26;99772.56;;;4.37;79.60
40089;BME280;25793;55.706;13.186;2022-11-23T02:06:55;99777.63;;;4.38;79.70
40089;BME280;25793;55.706;13.186;2022-11-23T02:09:25;99765.31;;;4.45;79.72
40089;BME280;25793;55.706;13.186;2022-11-23T02:11:51;99761.84;;;4.46;79.38
40089;BME280;25793;55.706;13.186;2022-11-23T02:14:18;99769.47;;;4.47;79.34
40089;BME280;25793;55.706;13.186;2022-11-23T02:16:52;99777.00;;;4.52;79.29
40089;BME280;25793;55.706;13.186;2022-11-23T02:19:55;99772.38;;;4.59;79.12
40089;BME280;25793;55.706;13.186;2022-11-23T02:25:18;99778.34;;;4.59;78.63
40089;BME280;25793;55.706;13.186;2022-11-23T02:27:52;99775.63;;;4.62;78.84
40089;BME280;25793;55.706;13.186;2022-11-23T02:30:19;99772.91;;;4.66;78.61
40089;BME280;25793;55.706;13.186;2022-11-23T02:32:45;99788.00;;;4.73;78.43
40089;BME280;25793;55.706;13.186;2022-11-23T02:35:12;99785.66;;;4.69;78.02
40089;BME280;25793;55.706;13.186;2022-11-23T02:37:42;99782.41;;;4.65;78.42
40089;BME280;25793;55.706;13.186;2022-11-23T02:40:30;99787.63;;;4.63;78.34
40089;BME280;25793;55.706;13.186;2022-11-23T02:42:58;99777.41;;;4.62;78.50
40089;BME280;25793;55.706;13.186;2022-11-23T02:45:47;99780.72;;;4.64;78.42
40089;BME280;25793;55.706;13.186;2022-11-23T02:48:15;99778.22;;;4.62;78.23
40089;BME280;25793;55.706;13.186;2022-11-23T02:50:42;99784.41;;;4.58;78.78
40089;BME280;25793;55.706;13.186;2022-11-23T02:53:09;99778.72;;;4.52;78.83
40089;BME280;25793;55.706;13.186;2022-11-23T02:55:36;99787.09;;;4.57;78.65
40089;BME280;25793;55.706;13.186;2022-11-23T02:58:04;99781.03;;;4.58;78.83
40089;BME280;25793;55.706;13.186;2022-11-23T03:00:31;99777.25;;;4.65;78.79
40089;BME280;25793;55.706;13.186;2022-11-23T03:03:00;99778.91;;;4.66;78.39
40089;BME280;25793;55.706;13.186;2022-11-23T03:05:27;99776.13;;;4.71;78.50
40089;BME280;25793;55.706;13.186;2022-11-23T03:07:53;99779.44;;;4.73;78.32
40089;BME280;25793;55.706;13.186;2022-11-23T03:10:20;99779.44;;;4.73;78.48
40089;BME280;25793;55.706;13.186;2022-11-23T03:12:53;99783.59;;;4.75;78.30
40089;BME280;25793;55.706;13.186;2022-11-23T03:15:20;99787.78;;;4.78;78.05
40089;BME280;25793;55.706;13.186;2022-11-23T03:17:47;99787.94;;;4.75;78.48
40089;BME280;25793;55.706;13.186;2022-11-23T03:20:15;99797.19;;;4.79;78.29
40089;BME280;25793;55.706;13.186;2022-11-23T03:22:45;99798.56;;;4.86;78.24
40089;BME280;25793;55.706;13.186;2022-11-23T03:25:13;99806.91;;;4.91;77.86
40089;BME280;25793;55.706;13.186;2022-11-23T03:27:46;99807.13;;;4.87;77.88
40089;BME280;25793;55.706;13.186;2022-11-23T03:30:13;99806.06;;;4.91;77.86
40089;BME280;25793;55.706;13.186;2022-11-23T03:32:41;99810.47;;;4.89;77.84
40089;BME280;25793;55.706;13.186;2022-11-23T03:35:08;99802.72;;;4.89;77.74
40089;BME280;25793;55.706;13.186;2022-11-23T03:37:44;99802.50;;;4.93;77.62
40089;BME280;25793;55.706;13.186;2022-11-23T03:40:11;99808.13;;;5.02;77.71
40089;BME280;25793;55.706;13.186;2022-11-23T03:43:06;99814.56;;;4.93;77.59
40089;BME280;25793;55.706;13.186;2022-11-23T03:45:33;99812.06;;;4.91;77.98
40089;BME280;25793;55.706;13.186;2022-11-23T03:47:59;99808.78;;;4.88;78.16
40089;BME280;25793;55.706;13.186;2022-11-23T03:50:26;99807.25;;;4.84;78.20
40089;BME280;25793;55.706;13.186;2022-11-23T03:52:55;99806.59;;;4.80;78.49
40089;BME280;25793;55.706;13.186;2022-11-23T03:55:22;99806.22;;;4.70;78.88
40089;BME280;25793;55.706;13.186;2022-11-23T03:57:51;99810.78;;;4.63;79.12
40089;BME280;25793;55.706;13.186;2022-11-23T04:00:21;99806.69;;;4.59;79.29
40089;BME280;25793;55.706;13.186;2022-11-23T04:02:48;99809.34;;;4.58;79.69
40089;BME280;25793;55.706;13.186;2022-11-23T04:05:44;99806.84;;;4.56;80.16
40089;BME280;25793;55.706;13.186;2022-11-23T04:08:36;99797.13;;;4.44;80.49
40089;BME280;25793;55.706;13.186;2022-11-23T04:11:08;99790.94;;;4.48;80.73
40089;BME280;25793;55.706;13.186;2022-11-23T04:13:37;99800.31;;;4.49;81.21
40089;BME280;25793;55.706;13.186;2022-11-23T04:16:04;99796.28;;;4.43;81.33
40089;BME280;25793;55.706;13.186;2022-11-23T04:18:32;99797.19;;;4.42;81.58
40089;BME280;25793;55.706;13.186;2022-11-23T04:20:59;99791.06;;;4.45;81.59
40089;BME280;25793;55.706;13.186;2022-11-23T04:23:27;99793.06;;;4.38;82.07
40089;BME280;25793;55.706;13.186;2022-11-23T04:25:54;99797.91;;;4.46;81.98
40089;BME280;25793;55.706;13.186;2022-11-23T04:28:22;99796.22;;;4.45;82.11
40089;BME280;25793;55.706;13.186;2022-11-23T04:30:48;99794.31;;;4.48;82.10
40089;BME280;25793;55.706;13.186;2022-11-23T04:33:16;99794.28;;;4.50;81.98
40089;BME280;25793;55.706;13.186;2022-11-23T04:35:43;99796.69;;;4.53;82.19
40089;BME280;25793;55.706;13.186;2022-11-23T04:38:09;99795.50;;;4.41;82.30
40089;BME280;25793;55.706;13.186;2022-11-23T04:40:36;99797.00;;;4.47;82.42
40089;BME280;25793;55.706;13.186;2022-11-23T04:43:05;99786.47;;;4.52;82.50
40089;BME280;25793;55.706;13.186;2022-11-23T04:45:37;99806.28;;;4.50;82.24
40089;BME280;25793;55.706;13.186;2022-11-23T04:48:06;99810.63;;;4.49;82.31
40089;BME280;25793;55.706;13.186;2022-11-23T04:50:34;99808.06;;;4.49;82.43
40089;BME280;25793;55.706;13.186;2022-11-23T04:53:07;99803.03;;;4.46;82.50
40089;BME280;25793;55.706;13.186;2022-11-23T04:55:43;99810.63;;;4.49;82.54
40089;BME280;25793;55.706;13.186;2022-11-23T04:58:11;99792.47;;;4.52;82.44
40089;BME280;25793;55.706;13.186;2022-11-23T05:00:39;99806.00;;;4.56;82.16
40089;BME280;25793;55.706;13.186;2022-11-23T05:03:06;99800.91;;;4.54;82.06
40089;BME280;25793;55.706;13.186;2022-11-23T05:05:39;99796.38;;;4.59;82.08
40089;BME280;25793;55.706;13.186;2022-11-23T05:08:07;99801.63;;;4.58;82.18
40089;BME280;25793;55.706;13.186;2022-11-23T05:10:44;99804.97;;;4.60;82.07
40089;BME280;25793;55.706;13.186;2022-11-23T05:13:12;99799.81;;;4.60;82.17
40089;BME280;25793;55.706;13.186;2022-11-23T05:15:38;99798.00;;;4.62;82.10
40089;BME280;25793;55.706;13.186;2022-11-23T05:18:06;99801.41;;;4.62;82.03
40089;BME280;25793;55.706;13.186;2022-11-23T05:20:34;99803.22;;;4.60;82.16
40089;BME280;25793;55.706;13.186;2022-11-23T05:23:03;99802.78;;;4.70;82.19
40089;BME280;25793;55.706;13.186;2022-11-23T05:25:32;99801.06;;;4.70;82.00
40089;BME280;25793;55.706;13.186;2022-11-23T05:28:02;99811.75;;;4.80;81.77
40089;BME280;25793;55.706;13.186;2022-11-23T05:30:49;99815.44;;;4.74;81.78
40089;BME280;25793;55.706;13.186;2022-11-23T05:33:16;99816.03;;;4.80;81.60
40089;BME280;25793;55.706;13.186;2022-11-23T05:35:43;99807.22;;;4.85;81.60
40089;BME280;25793;55.706;13.186;2022-11-23T05:38:09;99804.47;;;4.88;81.40
40089;BME280;25793;55.706;13.186;2022-11-23T05:40:36;99810.53;;;4.87;81.16
40089;BME280;25793;55.706;13.186;2022-11-23T05:43:05;99814.72;;;4.90;81.32
40089;BME280;25793;55.706;13.186;2022-11-23T05:45:34;99810.84;;;4.81;81.65
40089;BME280;25793;55.706;13.186;2022-11-23T05:48:01;99819.38;;;4.82;81.36
40089;BME280;25793;55.706;13.186;2022-11-23T05:50:51;99823.47;;;4.86;81.49
40089;BME280;25793;55.706;13.186;2022-11-23T05:53:27;99814.09;;;4.85;81.55
40089;BME280;25793;55.706;13.186;2022-11-23T05:56:07;99829.63;;;4.83;81.52
40089;BME280;25793;55.706;13.186;2022-11-23T05:58:43;99820.25;;;4.82;81.92
40089;BME280;25793;55.706;13.186;2022-11-23T06:01:10;99827.06;;;4.83;81.70
40089;BME280;25793;55.706;13.186;2022-11-23T06:03:37;99831.69;;;4.94;81.56
40089;BME280;25793;55.706;13.186;2022-11-23T06:06:12;99826.69;;;4.91;81.26
40089;BME280;25793;55.706;13.186;2022-11-23T06:08:41;99838.88;;;4.87;81.82
40089;BME280;25793;55.706;13.186;2022-11-23T06:11:15;99831.22;;;4.86;81.59
40089;BME280;25793;55.706;13.186;2022-11-23T06:13:48;99828.63;;;4.86;81.76
40089;BME280;25793;55.706;13.186;2022-11-23T06:16:16;99837.56;;;4.78;82.08
40089;BME280;25793;55.706;13.186;2022-11-23T06:18:56;99821.28;;;4.78;82.26
40089;BME280;25793;55.706;13.186;2022-11-23T06:21:23;99834.69;;;4.85;82.03
40089;BME280;25793;55.706;13.186;2022-11-23T06:23:50;99827.59;;;4.90;81.82
40089;BME280;25793;55.706;13.186;2022-11-23T06:26:17;99834.50;;;4.89;81.96
40089;BME280;25793;55.706;13.186;2022-11-23T06:28:44;99828.59;;;4.87;81.79
40089;BME280;25793;55.706;13.186;2022-11-23T06:31:13;99833.88;;;5.02;82.08
40089;BME280;25793;55.706;13.186;2022-11-23T06:33:42;99840.50;;;5.07;81.58
40089;BME280;25793;55.706;13.186;2022-11-23T06:36:09;99835.84;;;4.97;81.66
40089;BME280;25793;55.706;13.186;2022-11-23T06:38:43;99836.59;;;4.99;81.72
40089;BME280;25793;55.706;13.186;2022-11-23T06:41:16;99842.22;;;5.07;82.00
40089;BME280;25793;55.706;13.186;2022-11-23T06:43:46;99840.13;;;5.15;81.65
40089;BME280;25793;55.706;13.186;2022-11-23T06:46:21;99834.88;;;5.17;81.23
40089;BME280;25793;55.706;13.186;2022-11-23T06:48:48;99840.59;;;5.24;80.83
40089;BME280;25793;55.706;13.186;2022-11-23T06:51:15;99834.72;;;5.20;80.79
40089;BME280;25793;55.706;13.186;2022-11-23T06:53:43;99840.72;;;5.20;80.62
40089;BME280;25793;55.706;13.186;2022-11-23T06:56:12;99839.59;;;5.09;80.95
40089;BME280;25793;55.706;13.186;2022-11-23T06:58:39;99835.19;;;5.11;80.99
40089;BME280;25793;55.706;13.186;2022-11-23T07:01:11;99840.34;;;5.11;81.05
40089;BME280;25793;55.706;13.186;2022-11-23T07:03:47;99833.59;;;5.08;81.08
40089;BME280;25793;55.706;13.186;2022-11-23T07:06:20;99841.94;;;5.13;80.82
40089;BME280;25793;55.706;13.186;2022-11-23T07:08:53;99844.66;;;5.10;81.19
40089;BME280;25793;55.706;13.186;2022-11-23T07:11:46;99853.53;;;5.04;81.35
40089;BME280;25793;55.706;13.186;2022-11-23T07:14:15;99847.38;;;5.07;81.03
40089;BME280;25793;55.706;13.186;2022-11-23T07:16:45;99852.00;;;5.18;81.08
40089;BME280;25793;55.706;13.186;2022-11-23T07:19:14;99847.25;;;5.10;80.81
40089;BME280;25793;55.706;13.186;2022-11-23T07:21:41;99852.16;;;5.15;81.26
40089;BME280;25793;55.706;13.186;2022-11-23T07:24:08;99853.78;;;5.17;81.44
40089;BME280;25793;55.706;13.186;2022-11-23T07:26:34;99843.38;;;5.19;81.06
40089;BME280;25793;55.706;13.186;2022-11-23T07:29:03;99848.63;;;5.17;80.94
40089;BME280;25793;55.706;13.186;2022-11-23T07:31:29;99859.75;;;5.18;81.12
40089;BME280;25793;55.706;13.186;2022-11-23T07:33:56;99860.31;;;5.25;81.05
40089;BME280;25793;55.706;13.186;2022-11-23T07:36:23;99863.41;;;5.31;80.74
40089;BME280;25793;55.706;13.186;2022-11-23T07:38:50;99858.47;;;5.27;80.61
40089;BME280;25793;55.706;13.186;2022-11-23T07:41:18;99866.22;;;5.27;80.78
40089;BME280;25793;55.706;13.186;2022-11-23T07:44:01;99860.97;;;5.28;80.64
40089;BME280;25793;55.706;13.186;2022-11-23T07:46:28;99857.41;;;5.31;80.49
40089;BME280;25793;55.706;13.186;2022-11-23T07:48:55;99850.41;;;5.33;80.36
40089;BME280;25793;55.706;13.186;2022-11-23T07:51:28;99863.09;;;5.37;80.77
40089;BME280;25793;55.706;13.186;2022-11-23T07:53:55;99868.03;;;5.42;80.29
40089;BME280;25793;55.706;13.186;2022-11-23T07:56:22;99870.75;;;5.39;80.14
40089;BME280;25793;55.706;13.186;2022-11-23T07:58:48;99865.59;;;5.39;80.16
40089;BME280;25793;55.706;13.186;2022-11-23T08:01:16;99870.59;;;5.42;80.14
40089;BME280;25793;55.706;13.186;2022-11-23T08:03:45;99861.66;;;5.49;80.37
40089;BME280;25793;55.706;13.186;2022-11-23T08:06:12;99863.47;;;5.47;80.01
40089;BME280;25793;55.706;13.186;2022-11-23T08:08:40;99857.50;;;5.47;80.30
40089;BME280;25793;55.706;13.186;2022-11-23T08:11:08;99870.97;;;5.52;80.07
40089;BME280;25793;55.706;13.186;2022-11-23T08:13:35;99868.47;;;5.50;79.97
40089;BME280;25793;55.706;13.186;2022-11-23T08:16:02;99864.22;;;5.49;80.21
40089;BME280;25793;55.706;13.186;2022-11-23T08:18:29;99862.31;;;5.53;79.86
40089;BME280;25793;55.706;13.186;2022-11-23T08:20:58;99872.72;;;5.51;80.00
40089;BME280;25793;55.706;13.186;2022-11-23T08:23:28;99867.56;;;5.51;80.22
40089;BME280;25793;55.706;13.186;2022-11-23T08:25:55;99862.31;;;5.53;80.03
40089;BME280;25793;55.706;13.186;2022-11-23T08:28:21;99860.19;;;5.61;79.83
40089;BME280;25793;55.706;13.186;2022-11-23T08:30:48;99866.28;;;5.60;79.93
40089;BME280;25793;55.706;13.186;2022-11-23T08:33:15;99865.44;;;5.60;79.84
40089;BME280;25793;55.706;13.186;2022-11-23T08:35:42;99872.44;;;5.58;79.91
40089;BME280;25793;55.706;13.186;2022-11-23T08:38:09;99871.13;;;5.49;80.32
40089;BME280;25793;55.706;13.186;2022-11-23T08:40:37;99864.22;;;5.49;80.15
40089;BME280;25793;55.706;13.186;2022-11-23T08:43:04;99869.47;;;5.48;80.21
40089;BME280;25793;55.706;13.186;2022-11-23T08:45:31;99871.66;;;5.56;80.32
40089;BME280;25793;55.706;13.186;2022-11-23T08:47:59;99863.03;;;5.57;79.94
40089;BME280;25793;55.706;13.186;2022-11-23T08:50:27;99862.13;;;5.58;80.29
40089;BME280;25793;55.706;13.186;2022-11-23T08:52:55;99858.47;;;5.62;80.11
40089;BME280;25793;55.706;13.186;2022-11-23T08:55:23;99865.06;;;5.67;80.09
40089;BME280;25793;55.706;13.186;2022-11-23T08:57:54;99870.13;;;5.69;79.76
40089;BME280;25793;55.706;13.186;2022-11-23T09:00:21;99859.22;;;5.64;79.84
40089;BME280;25793;55.706;13.186;2022-11-23T09:02:48;99859.66;;;5.72;79.85
40089;BME280;25793;55.706;13.186;2022-11-23T09:05:15;99862.16;;;5.74;79.58
40089;BME280;25793;55.706;13.186;2022-11-23T09:07:41;99853.56;;;5.73;79.83
40089;BME280;25793;55.706;13.186;2022-11-23T09:10:08;99851.59;;;5.78;79.59
40089;BME280;25793;55.706;13.186;2022-11-23T09:12:42;99862.16;;;5.74;79.67
40089;BME280;25793;55.706;13.186;2022-11-23T09:15:09;99859.59;;;5.74;79.85
40089;BME280;25793;55.706;13.186;2022-11-23T09:17:35;99865.19;;;5.82;79.78
40089;BME280;25793;55.706;13.186;2022-11-23T09:20:02;99857.44;;;5.82;79.39
40089;BME280;25793;55.706;13.186;2022-11-23T09:22:30;99863.06;;;5.73;79.67
40089;BME280;25793;55.706;13.186;2022-11-23T09:24:57;99861.34;;;5.89;79.46
40089;BME280;25793;55.706;13.186;2022-11-23T09:27:23;99858.88;;;5.88;79.54
40089;BME280;25793;55.706;13.186;2022-11-23T09:29:51;99866.88;;;5.83;79.54
40089;BME280;25793;55.706;13.186;2022-11-23T09:32:17;99873.59;;;5.86;79.66
40089;BME280;25793;55.706;13.186;2022-11-23T09:34:44;99866.72;;;5.86;79.44
40089;BME280;25793;55.706;13.186;2022-11-23T09:37:11;99869.69;;;5.94;79.48
40089;BME280;25793;55.706;13.186;2022-11-23T09:39:38;99874.09;;;5.92;79.41
40089;BME280;25793;55.706;13.186;2022-11-23T09:47:45;99861.81;;;5.97;79.39
40089;BME280;25793;55.706;13.186;2022-11-23T09:50:24;99873.28;;;5.92;79.17
40089;BME280;25793;55.706;13.186;2022-11-23T09:52:53;99882.69;;;5.93;79.44
40089;BME280;25793;55.706;13.186;2022-11-23T09:58:04;99862.38;;;6.04;78.93
40089;BME280;25793;55.706;13.186;2022-11-23T10:00:42;99858.94;;;6.04;78.84
40089;BME280;25793;55.706;13.186;2022-11-23T10:03:13;99867.44;;;6.06;78.59
40089;BME280;25793;55.706;13.186;2022-11-23T10:05:46;99862.13;;;6.09;78.69
40089;BME280;25793;55.706;13.186;2022-11-23T10:14:34;99870.69;;;6.25;78.09
40089;BME280;25793;55.706;13.186;2022-11-23T10:22:59;99869.88;;;6.25;78.44
40089;BME280;25793;55.706;13.186;2022-11-23T10:25:42;99869.47;;;6.33;78.23
40089;BME280;25793;55.706;13.186;2022-11-23T10:28:14;99875.16;;;6.39;78.01
40089;BME280;25793;55.706;13.186;2022-11-23T10:30:41;99863.72;;;6.44;77.65
40089;BME280;25793;55.706;13.186;2022-11-23T10:33:29;99872.31;;;6.44;77.95
40089;BME280;25793;55.706;13.186;2022-11-23T10:35:57;99858.22;;;6.34;77.95
40089;BME280;25793;55.706;13.186;2022-11-23T10:38:26;99866.72;;;6.36;78.65
40089;BME280;25793;55.706;13.186;2022-11-23T10:41:05;99866.06;;;6.48;78.11
40089;BME280;25793;55.706;13.186;2022-11-23T10:43:51;99863.91;;;6.56;77.78
40089;BME280;25793;55.706;13.186;2022-11-23T10:46:29;99863.31;;;6.51;77.87
40089;BME280;25793;55.706;13.186;2022-11-23T10:52:25;99866.25;;;6.45;77.95
40089;BME280;25793;55.706;13.186;2022-11-23T10:54:55;99865.06;;;6.35;78.05
40089;BME280;25793;55.706;13.186;2022-11-23T10:57:42;99867.16;;;6.44;78.41
40089;BME280;25793;55.706;13.186;2022-11-23T11:02:41;99863.66;;;6.45;78.41
40089;BME280;25793;55.706;13.186;2022-11-23T11:05:37;99856.38;;;6.36;78.45
40089;BME280;25793;55.706;13.186;2022-11-23T11:08:30;99866.81;;;6.50;78.42
40089;BME280;25793;55.706;13.186;2022-11-23T11:11:10;99869.31;;;6.52;78.44
40089;BME280;25793;55.706;13.186;2022-11-23T11:13:47;99870.31;;;6.49;78.66
40089;BME280;25793;55.706;13.186;2022-11-23T11:16:25;99873.88;;;6.47;78.42
40089;BME280;25793;55.706;13.186;2022-11-23T11:18:53;99871.56;;;6.42;78.68
40089;BME280;25793;55.706;13.186;2022-11-23T11:21:22;99872.91;;;6.49;78.62
40089;BME280;25793;55.706;13.186;2022-11-23T11:24:01;99872.81;;;6.51;78.60
40089;BME280;25793;55.706;13.186;2022-11-23T11:26:30;99869.91;;;6.57;78.48
40089;BME280;25793;55.706;13.186;2022-11-23T11:29:03;99874.63;;;6.65;78.40
40089;BME280;25793;55.706;13.186;2022-11-23T11:34:11;99867.16;;;6.60;78.37
40089;BME280;25793;55.706;13.186;2022-11-23T11:36:58;99875.00;;;6.59;78.38
40089;BME280;25793;55.706;13.186;2022-11-23T11:39:32;99871.91;;;6.52;78.72
40089;BME280;25793;55.706;13.186;2022-11-23T11:42:04;99865.91;;;6.51;78.79
40089;BME280;25793;55.706;13.186;2022-11-23T11:44:35;99872.66;;;6.54;78.93
40089;BME280;25793;55.706;13.186;2022-11-23T11:47:12;99877.66;;;6.57;78.72
40089;BME280;25793;55.706;13.186;2022-11-23T11:49:46;99877.81;;;6.54;79.05
40089;BME280;25793;55.706;13.186;2022-11-23T11:52:18;99876.47;;;6.63;78.88
40089;BME280;25793;55.706;13.186;2022-11-23T11:55:10;99872.47;;;6.73;78.74
40089;BME280;25793;55.706;13.186;2022-11-23T11:57:44;99876.66;;;6.76;78.47
40089;BME280;25793;55.706;13.186;2022-11-23T12:00:18;99870.56;;;6.77;78.28
40089;BME280;25793;55.706;13.186;2022-11-23T12:05:46;99867.81;;;6.80;78.30
40089;BME280;25793;55.706;13.186;2022-11-23T12:08:20;99866.31;;;6.76;78.38
40089;BME280;25793;55.706;13.186;2022-11-23T12:10:53;99869.50;;;6.81;78.53
40089;BME280;25793;55.706;13.186;2022-11-23T12:13:26;99869.28;;;6.84;78.38
40089;BME280;25793;55.706;13.186;2022-11-23T12:16:13;99871.72;;;6.87;78.11
40089;BME280;25793;55.706;13.186;2022-11-23T12:18:53;99869.88;;;6.73;78.66
40089;BME280;25793;55.706;13.186;2022-11-23T12:21:48;99870.56;;;6.77;78.82
40089;BME280;25793;55.706;13.186;2022-11-23T12:28:08;99868.22;;;6.72;78.87
40089;BME280;25793;55.706;13.186;2022-11-23T12:43:59;99871.41;;;6.77;78.59
40089;BME280;25793;55.706;13.186;2022-11-23T12:52:42;99875.47;;;6.81;78.89
40089;BME280;25793;55.706;13.186;2022-11-23T12:58:32;99871.19;;;6.96;78.25
40089;BME280;25793;55.706;13.186;2022-11-23T13:00:46;99872.53;;;7.04;78.21
40089;BME280;25793;55.706;13.186;2022-11-23T13:12:20;99871.31;;;6.95;78.22
40089;BME280;25793;55.706;13.186;2022-11-23T13:21:16;99876.47;;;6.95;78.24
40089;BME280;25793;55.706;13.186;2022-11-23T13:23:47;99879.88;;;6.95;78.50
40089;BME280;25793;55.706;13.186;2022-11-23T13:26:17;99863.94;;;6.87;78.23
40089;BME280;25793;55.706;13.186;2022-11-23T13:28:46;99869.06;;;6.89;78.16
40089;BME280;25793;55.706;13.186;2022-11-23T13:33:44;99866.63;;;6.85;78.85
40089;BME280;25793;55.706;13.186;2022-11-23T13:36:38;99866.47;;;6.89;78.49
40089;BME280;25793;55.706;13.186;2022-11-23T13:42:11;99868.19;;;6.88;78.60
40089;BME280;25793;55.706;13.186;2022-11-23T13:44:38;99870.63;;;6.91;78.71
40089;BME280;25793;55.706;13.186;2022-11-23T13:47:17;99870.44;;;6.94;78.66
40089;BME280;25793;55.706;13.186;2022-11-23T13:49:51;99870.28;;;6.97;78.54
40089;BME280;25793;55.706;13.186;2022-11-23T13:52:32;99867.13;;;6.92;78.62
40089;BME280;25793;55.706;13.186;2022-11-23T13:55:30;99869.47;;;6.97;78.53
40089;BME280;25793;55.706;13.186;2022-11-23T14:00:55;99869.94;;;7.04;78.20
40089;BME280;25793;55.706;13.186;2022-11-23T14:09:09;99869.88;;;6.89;78.79
40089;BME280;25793;55.706;13.186;2022-11-23T14:14:46;99874.63;;;6.97;78.48
40089;BME280;25793;55.706;13.186;2022-11-23T14:26:23;99880.91;;;6.77;79.47
40089;BME280;25793;55.706;13.186;2022-11-23T14:34:35;99882.31;;;6.66;79.28
40089;BME280;25793;55.706;13.186;2022-11-23T14:42:50;99890.66;;;6.71;79.21
40089;BME280;25793;55.706;13.186;2022-11-23T14:45:19;99899.97;;;6.74;79.17
40089;BME280;25793;55.706;13.186;2022-11-23T14:47:47;99891.06;;;6.64;79.51
40089;BME280;25793;55.706;13.186;2022-11-23T14:52:46;99884.59;;;6.56;79.67
40089;BME280;25793;55.706;13.186;2022-11-23T14:55:19;99896.59;;;6.58;79.96
40089;BME280;25793;55.706;13.186;2022-11-23T14:57:48;99902.09;;;6.67;80.01
40089;BME280;25793;55.706;13.186;2022-11-23T15:00:27;99886.31;;;6.72;79.11
40089;BME280;25793;55.706;13.186;2022-11-23T15:02:57;99894.50;;;6.64;79.57
40089;BME280;25793;55.706;13.186;2022-11-23T15:05:31;99886.81;;;6.63;79.82
40089;BME280;25793;55.706;13.186;2022-11-23T15:08:08;99885.81;;;6.65;79.74
40089;BME280;25793;55.706;13.186;2022-11-23T15:15:54;99885.72;;;6.51;80.14
40089;BME280;25793;55.706;13.186;2022-11-23T15:18:32;99886.56;;;6.51;80.32
40089;BME280;25793;55.706;13.186;2022-11-23T15:21:24;99892.56;;;6.52;80.38
40089;BME280;25793;55.706;13.186;2022-11-23T15:23:54;99884.47;;;6.58;79.98